createdAt,value
2022-12-23T00:01:26.732Z,15.60
2022-12-23T00:03:57.579Z,14.40
2022-12-23T00:06:24.260Z,15.10
2022-12-23T00:08:58.168Z,15.30
2022-12-23T00:11:26.333Z,15.47
2022-12-23T00:14:18.141Z,14.17
2022-12-23T00:16:47.540Z,15.27
2022-12-23T00:19:14.216Z,15.10
2022-12-23T00:21:40.946Z,15.30
2022-12-23T00:24:07.693Z,15.77
2022-12-23T00:26:34.302Z,15.20
2022-12-23T00:29:00.999Z,15.90
2022-12-23T00:31:27.826Z,15.03
2022-12-23T00:33:54.585Z,15.50
2022-12-23T00:36:25.534Z,15.83
2022-12-23T00:39:10.925Z,17.27
2022-12-23T00:41:56.339Z,15.60
2022-12-23T00:44:23.091Z,17.50
2022-12-23T00:46:50.149Z,16.80
2022-12-23T00:49:37.370Z,15.33
2022-12-23T00:52:06.665Z,15.50
2022-12-23T00:54:33.603Z,16.17
2022-12-23T00:57:00.959Z,17.07
2022-12-23T00:59:27.667Z,16.40
2022-12-23T01:02:13.116Z,17.83
2022-12-23T01:04:58.414Z,18.20
2022-12-23T01:07:25.253Z,16.77
2022-12-23T01:09:51.936Z,18.00
2022-12-23T01:12:18.679Z,17.20
2022-12-23T01:14:45.398Z,16.60
2022-12-23T01:17:12.210Z,18.13
2022-12-23T01:19:38.943Z,16.30
2022-12-23T01:22:05.690Z,16.40
2022-12-23T01:24:32.876Z,16.27
2022-12-23T01:27:00.181Z,17.90
2022-12-23T01:29:26.875Z,16.67
2022-12-23T01:31:53.621Z,17.33
2022-12-23T01:34:20.292Z,17.47
2022-12-23T01:36:46.978Z,19.90
2022-12-23T01:39:13.679Z,17.30
2022-12-23T01:41:59.220Z,16.27
2022-12-23T01:44:55.147Z,18.20
2022-12-23T01:47:42.459Z,16.80
2022-12-23T01:50:23.255Z,17.23
2022-12-23T01:53:19.892Z,16.67
2022-12-23T01:55:48.643Z,16.33
2022-12-23T01:58:21.167Z,16.77
2022-12-23T02:01:06.621Z,17.93
2022-12-23T02:03:42.868Z,18.07
2022-12-23T02:06:43.570Z,17.20
2022-12-23T02:09:19.396Z,17.57
2022-12-23T02:12:17.065Z,16.93
2022-12-23T02:15:36.448Z,17.27
2022-12-23T02:18:51.367Z,19.10
2022-12-23T02:21:39.554Z,16.80
2022-12-23T02:24:44.697Z,17.87
2022-12-23T02:27:24.883Z,16.60
2022-12-23T02:30:20.281Z,19.00
2022-12-23T02:33:08.392Z,16.13
2022-12-23T02:35:58.938Z,18.03
2022-12-23T02:38:45.176Z,17.13
2022-12-23T02:41:31.509Z,18.10
2022-12-23T02:44:22.246Z,17.43
2022-12-23T02:47:00.728Z,17.73
2022-12-23T02:49:36.355Z,17.27
2022-12-23T02:52:07.510Z,18.30
2022-12-23T02:54:40.672Z,18.83
2022-12-23T02:57:11.496Z,18.57
2022-12-23T02:59:46.360Z,18.73
2022-12-23T03:02:13.481Z,18.50
2022-12-23T03:04:42.124Z,18.70
2022-12-23T03:07:18.756Z,19.13
2022-12-23T03:09:54.395Z,16.40
2022-12-23T03:12:26.805Z,19.67
2022-12-23T03:15:16.451Z,18.43
2022-12-23T03:17:59.574Z,19.40
2022-12-23T03:20:51.728Z,19.67
2022-12-23T03:23:27.081Z,18.70
2022-12-23T03:26:03.958Z,20.70
2022-12-23T03:28:44.651Z,20.63
2022-12-23T03:31:18.210Z,22.03
2022-12-23T03:33:48.347Z,21.00
2022-12-23T03:36:29.159Z,20.73
2022-12-23T03:38:57.187Z,21.80
2022-12-23T03:41:30.560Z,22.50
2022-12-23T03:44:03.922Z,23.30
2022-12-23T03:46:40.173Z,22.53
2022-12-23T03:49:25.935Z,23.13
2022-12-23T03:52:20.804Z,23.27
2022-12-23T03:54:54.540Z,23.50
2022-12-23T03:57:31.145Z,23.87
2022-12-23T03:59:57.972Z,23.37
2022-12-23T04:02:39.206Z,23.87
2022-12-23T04:05:23.803Z,23.70
2022-12-23T04:08:01.597Z,24.17
2022-12-23T04:10:29.216Z,26.40
2022-12-23T04:12:55.868Z,23.93
2022-12-23T04:15:24.860Z,23.10
2022-12-23T04:17:52.753Z,26.87
2022-12-23T04:20:19.533Z,25.23
2022-12-23T04:22:46.416Z,23.37
2022-12-23T04:25:14.800Z,22.87
2022-12-23T04:27:41.713Z,23.00
2022-12-23T04:30:10.637Z,26.03
2022-12-23T04:32:37.529Z,23.90
2022-12-23T04:35:04.817Z,25.33
2022-12-23T04:37:31.505Z,25.43
2022-12-23T04:39:58.145Z,28.10
2022-12-23T04:42:24.828Z,26.00
2022-12-23T04:44:51.521Z,26.53
2022-12-23T04:47:18.578Z,25.03
2022-12-23T04:49:45.247Z,24.57
2022-12-23T04:52:11.891Z,25.20
2022-12-23T04:54:45.529Z,25.50
2022-12-23T04:57:13.160Z,26.13
2022-12-23T04:59:39.950Z,23.83
2022-12-23T05:02:08.141Z,26.03
2022-12-23T05:04:35.257Z,26.63
2022-12-23T05:07:01.971Z,24.80
2022-12-23T05:09:28.763Z,26.73
2022-12-23T05:11:55.352Z,24.60
2022-12-23T05:14:22.045Z,23.60
2022-12-23T05:16:48.744Z,24.57
2022-12-23T05:19:15.608Z,24.80
2022-12-23T05:21:42.272Z,24.97
2022-12-23T05:24:09.069Z,24.50
2022-12-23T05:26:35.694Z,24.23
2022-12-23T05:29:02.405Z,23.23
2022-12-23T05:31:29.055Z,22.40
2022-12-23T05:33:58.397Z,26.17
2022-12-23T05:36:27.510Z,24.67
2022-12-23T05:38:54.166Z,25.87
2022-12-23T05:41:20.899Z,23.60
2022-12-23T05:43:47.603Z,23.73
2022-12-23T05:46:14.383Z,24.20
2022-12-23T05:48:41.141Z,24.23
2022-12-23T05:51:07.801Z,23.30
2022-12-23T05:53:34.443Z,23.50
2022-12-23T05:56:04.729Z,25.60
2022-12-23T05:58:31.421Z,23.27
2022-12-23T06:00:58.129Z,23.20
2022-12-23T06:03:24.974Z,24.10
2022-12-23T06:05:52.470Z,23.33
2022-12-23T06:08:19.213Z,22.50
2022-12-23T06:10:45.890Z,24.70
2022-12-23T06:13:12.707Z,23.93
2022-12-23T06:15:39.689Z,24.50
2022-12-23T06:18:06.311Z,22.47
2022-12-23T06:20:32.979Z,23.10
2022-12-23T06:22:59.729Z,21.60
2022-12-23T06:25:26.363Z,22.60
2022-12-23T06:27:53.032Z,21.47
2022-12-23T06:30:19.773Z,20.20
2022-12-23T06:32:46.502Z,21.17
2022-12-23T06:35:13.433Z,22.23
2022-12-23T06:37:40.123Z,21.00
2022-12-23T06:40:07.164Z,18.73
2022-12-23T06:42:33.835Z,18.97
2022-12-23T06:45:00.523Z,18.17
2022-12-23T06:47:27.225Z,19.20
2022-12-23T06:49:54.840Z,18.80
2022-12-23T06:52:23.115Z,19.70
2022-12-23T06:54:49.908Z,19.13
2022-12-23T06:57:16.561Z,18.40
2022-12-23T06:59:43.358Z,19.10
2022-12-23T07:02:12.140Z,18.90
2022-12-23T07:04:38.898Z,20.17
2022-12-23T07:07:05.610Z,18.37
2022-12-23T07:09:32.260Z,18.87
2022-12-23T07:11:58.955Z,20.57
2022-12-23T07:14:25.474Z,19.00
2022-12-23T07:16:52.189Z,19.20
2022-12-23T07:19:18.916Z,20.90
2022-12-23T07:21:45.559Z,18.97
2022-12-23T07:24:12.270Z,19.30
2022-12-23T07:26:38.924Z,19.53
2022-12-23T07:29:05.637Z,21.07
2022-12-23T07:31:32.432Z,22.40
2022-12-23T07:33:59.113Z,20.40
2022-12-23T07:36:25.775Z,19.50
2022-12-23T07:38:52.522Z,19.90
2022-12-23T07:41:19.394Z,20.10
2022-12-23T07:43:46.663Z,20.40
2022-12-23T07:46:13.364Z,20.47
2022-12-23T07:48:41.901Z,17.60
2022-12-23T07:51:08.905Z,21.73
2022-12-23T07:53:35.953Z,20.20
2022-12-23T07:56:02.691Z,17.60
2022-12-23T07:58:29.361Z,21.20
2022-12-23T08:01:01.226Z,19.50
2022-12-23T08:03:28.030Z,19.90
2022-12-23T08:06:02.849Z,17.67
2022-12-23T08:08:29.690Z,17.40
2022-12-23T08:11:04.787Z,20.77
2022-12-23T08:13:35.642Z,18.67
2022-12-23T08:16:03.678Z,19.40
2022-12-23T08:18:32.205Z,19.37
2022-12-23T08:21:01.427Z,20.97
2022-12-23T08:23:29.585Z,19.97
2022-12-23T08:26:05.980Z,21.10
2022-12-23T08:28:33.441Z,19.53
2022-12-23T08:31:12.989Z,16.80
2022-12-23T08:33:42.557Z,20.63
2022-12-23T08:36:14.049Z,19.30
2022-12-23T08:38:44.633Z,18.10
2022-12-23T08:41:16.415Z,19.40
2022-12-23T08:43:43.243Z,17.53
2022-12-23T08:46:10.291Z,19.13
2022-12-23T08:48:37.796Z,20.67
2022-12-23T08:51:11.046Z,19.40
2022-12-23T08:53:39.603Z,18.93
2022-12-23T08:56:12.606Z,18.53
2022-12-23T08:58:45.555Z,20.20
2022-12-23T09:01:14.564Z,19.77
2022-12-23T09:03:42.486Z,20.07
2022-12-23T09:06:15.092Z,18.07
2022-12-23T09:08:42.188Z,17.90
2022-12-23T09:11:14.764Z,20.47
2022-12-23T09:13:41.960Z,20.77
2022-12-23T09:16:09.082Z,21.10
2022-12-23T09:18:37.292Z,22.60
2022-12-23T09:21:07.277Z,19.70
2022-12-23T09:23:34.948Z,21.47
2022-12-23T09:26:01.590Z,19.97
2022-12-23T09:28:28.256Z,22.90
2022-12-23T09:30:54.936Z,20.87
2022-12-23T09:33:21.739Z,21.20
2022-12-23T09:35:48.452Z,21.17
2022-12-23T09:38:15.095Z,20.23
2022-12-23T09:40:42.388Z,22.30
2022-12-23T09:43:33.709Z,20.00
2022-12-23T09:46:12.099Z,23.00
2022-12-23T09:48:45.984Z,23.47
2022-12-23T09:51:13.445Z,22.30
2022-12-23T09:53:46.393Z,21.33
2022-12-23T09:56:34.216Z,20.00
2022-12-23T09:59:19.135Z,20.67
2022-12-23T10:01:57.356Z,20.60
2022-12-23T10:04:42.890Z,21.30
2022-12-23T10:07:17.372Z,21.23
2022-12-23T10:09:48.879Z,19.13
2022-12-23T10:12:40.405Z,19.17
2022-12-23T10:15:19.971Z,20.87
2022-12-23T10:17:48.601Z,20.87
2022-12-23T10:20:20.912Z,20.10
2022-12-23T10:22:47.587Z,18.07
2022-12-23T10:25:19.949Z,20.93
2022-12-23T10:27:46.613Z,18.80
2022-12-23T10:30:34.208Z,20.97
2022-12-23T10:33:21.214Z,24.37
2022-12-23T10:36:02.151Z,19.87
2022-12-23T10:38:34.928Z,19.87
2022-12-23T10:41:28.516Z,18.70
2022-12-23T10:44:04.407Z,19.00
2022-12-23T10:46:45.953Z,17.00
2022-12-23T10:49:33.443Z,18.47
2022-12-23T10:52:18.025Z,20.00
2022-12-23T10:54:46.367Z,19.30
2022-12-23T10:57:16.573Z,20.23
2022-12-23T10:59:43.743Z,18.67
2022-12-23T11:02:13.704Z,19.90
2022-12-23T11:04:42.961Z,18.50
2022-12-23T11:07:46.980Z,19.17
2022-12-23T11:10:22.268Z,17.50
2022-12-23T11:12:53.577Z,19.27
2022-12-23T11:15:38.464Z,20.07
2022-12-23T11:18:14.077Z,19.33
2022-12-23T11:20:42.881Z,17.87
2022-12-23T11:23:35.732Z,16.73
2022-12-23T11:26:09.508Z,17.50
2022-12-23T11:28:46.911Z,15.93
2022-12-23T11:31:16.947Z,17.20
2022-12-23T11:33:55.124Z,16.00
2022-12-23T11:36:25.000Z,17.60
2022-12-23T11:38:59.577Z,16.70
2022-12-23T11:41:34.984Z,19.03
2022-12-23T11:44:11.395Z,17.90
2022-12-23T11:46:38.431Z,16.00
2022-12-23T11:49:16.153Z,17.50
2022-12-23T11:52:02.354Z,18.20
2022-12-23T11:54:29.538Z,18.90
2022-12-23T11:56:56.929Z,17.23
2022-12-23T11:59:30.634Z,17.70
2022-12-23T12:02:00.433Z,17.13
2022-12-23T12:04:33.276Z,15.40
2022-12-23T12:07:01.799Z,17.17
2022-12-23T12:09:30.642Z,15.50
2022-12-23T12:12:13.380Z,14.80
2022-12-23T12:14:44.607Z,15.37
2022-12-23T12:17:39.379Z,15.10
2022-12-23T12:20:37.589Z,15.00
2022-12-23T12:23:10.658Z,14.40
2022-12-23T12:25:51.589Z,15.37
2022-12-23T12:28:25.150Z,14.57
2022-12-23T12:31:21.302Z,15.33
2022-12-23T12:34:02.421Z,13.43
2022-12-23T12:36:47.695Z,12.93
2022-12-23T12:39:26.137Z,13.20
2022-12-23T12:42:05.037Z,14.40
2022-12-23T12:44:54.572Z,14.57
2022-12-23T12:47:53.257Z,14.80
2022-12-23T12:50:33.895Z,13.90
2022-12-23T12:53:15.625Z,13.20
2022-12-23T12:55:48.112Z,14.00
2022-12-23T12:58:24.630Z,12.63
2022-12-23T13:01:12.945Z,15.33
2022-12-23T13:04:16.469Z,15.00
2022-12-23T13:06:57.999Z,15.23
2022-12-23T13:09:55.235Z,14.17
2022-12-23T13:12:34.503Z,13.80
2022-12-23T13:15:39.569Z,13.93
2022-12-23T13:18:41.537Z,14.83
2022-12-23T13:21:24.284Z,14.67
2022-12-23T13:24:12.753Z,15.90
2022-12-23T13:26:48.873Z,16.20
2022-12-23T13:29:46.223Z,14.60
2022-12-23T13:32:26.384Z,14.53
2022-12-23T13:35:12.592Z,14.17
2022-12-23T13:38:18.053Z,14.63
2022-12-23T13:41:00.450Z,15.07
2022-12-23T13:43:37.784Z,16.30
2022-12-23T13:46:19.079Z,15.03
2022-12-23T13:49:08.501Z,15.00
2022-12-23T13:52:04.211Z,13.60
2022-12-23T13:55:09.601Z,15.40
2022-12-23T13:58:06.777Z,15.67
2022-12-23T14:00:34.924Z,15.00
2022-12-23T14:03:01.583Z,16.87
2022-12-23T14:05:41.106Z,15.87
2022-12-23T14:08:20.174Z,15.43
2022-12-23T14:10:58.925Z,14.73
2022-12-23T14:13:28.984Z,15.97
2022-12-23T14:16:23.152Z,16.87
2022-12-23T14:19:28.931Z,17.33
2022-12-23T14:22:01.140Z,14.20
2022-12-23T14:25:00.049Z,15.10
2022-12-23T14:27:49.881Z,17.30
2022-12-23T14:30:37.534Z,19.33
2022-12-23T14:33:27.598Z,19.97
2022-12-23T14:36:20.864Z,18.80
2022-12-23T14:39:12.409Z,21.37
2022-12-23T14:41:50.880Z,19.67
2022-12-23T14:44:35.486Z,21.20
2022-12-23T14:47:03.573Z,19.67
2022-12-23T14:49:40.917Z,20.17
2022-12-23T14:52:40.924Z,18.93
2022-12-23T14:55:31.300Z,19.37
2022-12-23T14:58:28.355Z,21.37
2022-12-23T15:01:08.084Z,19.00
2022-12-23T15:03:42.140Z,22.20
2022-12-23T15:06:14.263Z,18.97
2022-12-23T15:08:43.360Z,20.27
2022-12-23T15:11:26.651Z,20.10
2022-12-23T15:13:55.235Z,20.83
2022-12-23T15:16:30.478Z,19.93
2022-12-23T15:19:00.222Z,20.10
2022-12-23T15:21:34.754Z,19.90
2022-12-23T15:24:01.479Z,21.43
2022-12-23T15:26:31.471Z,19.40
2022-12-23T15:29:00.168Z,19.17
2022-12-23T15:31:39.238Z,20.53
2022-12-23T15:34:17.100Z,19.30
2022-12-23T15:36:44.593Z,21.07
2022-12-23T15:39:19.497Z,20.63
2022-12-23T15:41:47.676Z,20.60
2022-12-23T15:44:22.686Z,18.77
2022-12-23T15:46:50.637Z,22.07
2022-12-23T15:49:19.803Z,21.13
2022-12-23T15:52:07.761Z,20.23
2022-12-23T15:54:44.895Z,19.30
2022-12-23T15:57:20.447Z,20.73
2022-12-23T15:59:47.587Z,20.10
2022-12-23T16:05:33.426Z,19.20
2022-12-23T16:08:16.073Z,17.97
2022-12-23T16:10:55.480Z,19.87
2022-12-23T16:13:22.129Z,20.40
2022-12-23T16:15:48.804Z,20.10
2022-12-23T16:18:24.002Z,18.17
2022-12-23T16:20:57.642Z,20.53
2022-12-23T16:23:29.245Z,19.80
2022-12-23T16:25:57.579Z,19.60
2022-12-23T16:28:38.241Z,20.60
2022-12-23T16:31:07.838Z,19.90
2022-12-23T16:33:39.593Z,20.27
2022-12-23T16:36:18.867Z,19.43
2022-12-23T16:38:46.222Z,19.93
2022-12-23T16:41:12.983Z,19.73
2022-12-23T16:43:41.279Z,19.50
2022-12-23T16:46:17.251Z,21.57
2022-12-23T16:48:52.703Z,21.73
2022-12-23T16:51:21.999Z,23.30
2022-12-23T16:53:49.956Z,19.23
2022-12-23T16:56:18.990Z,19.10
2022-12-23T16:58:46.489Z,22.80
2022-12-23T17:01:21.720Z,20.70
2022-12-23T17:03:48.817Z,20.80
2022-12-23T17:06:17.080Z,21.80
2022-12-23T17:08:43.835Z,19.80
2022-12-23T17:11:31.984Z,20.23
2022-12-23T17:14:04.102Z,22.20
2022-12-23T17:16:32.565Z,23.07
2022-12-23T17:19:00.036Z,21.27
2022-12-23T17:21:30.632Z,22.07
2022-12-23T17:24:09.192Z,20.53
2022-12-23T17:26:35.913Z,21.17
2022-12-23T17:29:06.215Z,20.70
2022-12-23T17:31:34.110Z,22.47
2022-12-23T17:34:01.938Z,19.73
2022-12-23T17:36:28.966Z,21.33
2022-12-23T17:38:55.936Z,19.17
2022-12-23T17:41:27.463Z,19.13
2022-12-23T17:43:54.385Z,19.90
2022-12-23T17:46:21.195Z,20.43
2022-12-23T17:48:47.987Z,19.77
2022-12-23T17:51:17.635Z,21.87
2022-12-23T17:53:45.702Z,20.27
2022-12-23T17:56:18.441Z,19.60
2022-12-23T17:58:46.687Z,22.30
2022-12-23T18:01:28.288Z,20.47
2022-12-23T18:03:56.788Z,19.33
2022-12-23T18:06:24.749Z,20.90
2022-12-23T18:08:51.515Z,20.87
2022-12-23T18:11:30.877Z,20.30
2022-12-23T18:13:57.634Z,20.47
2022-12-23T18:16:24.322Z,23.07
2022-12-23T18:18:51.832Z,20.30
2022-12-23T18:21:25.338Z,19.90
2022-12-23T18:23:54.734Z,21.73
2022-12-23T18:26:21.499Z,20.23
2022-12-23T18:28:48.192Z,20.17
2022-12-23T18:31:21.620Z,20.70
2022-12-23T18:33:48.634Z,20.90
2022-12-23T18:36:26.090Z,20.50
2022-12-23T18:38:53.331Z,19.20
2022-12-23T18:41:21.438Z,20.77
2022-12-23T18:43:48.194Z,18.43
2022-12-23T18:46:15.130Z,20.17
2022-12-23T18:48:41.893Z,19.20
2022-12-23T18:51:17.324Z,19.37
2022-12-23T18:53:44.203Z,21.20
2022-12-23T18:56:15.453Z,21.20
2022-12-23T18:58:42.587Z,22.63
2022-12-23T19:01:14.267Z,22.53
2022-12-23T19:03:41.387Z,22.73
2022-12-23T19:06:11.416Z,23.13
2022-12-23T19:08:38.739Z,21.63
2022-12-23T19:11:16.656Z,21.07
2022-12-23T19:13:43.959Z,23.20
2022-12-23T19:16:19.467Z,22.87
2022-12-23T19:18:47.845Z,21.70
2022-12-23T19:21:15.068Z,21.03
2022-12-23T19:23:42.109Z,22.23
2022-12-23T19:26:09.755Z,20.50
2022-12-23T19:28:38.187Z,21.20
2022-12-23T19:31:12.994Z,22.03
2022-12-23T19:33:41.247Z,21.30
2022-12-23T19:36:10.120Z,20.40
2022-12-23T19:38:37.153Z,22.07
2022-12-23T19:41:04.044Z,22.70
2022-12-23T19:43:30.819Z,20.73
2022-12-23T19:46:02.221Z,21.23
2022-12-23T19:48:29.521Z,21.20
2022-12-23T19:51:04.515Z,20.40
2022-12-23T19:53:31.528Z,20.67
2022-12-23T19:56:11.137Z,21.07
2022-12-23T19:58:39.671Z,20.40
2022-12-23T20:01:09.413Z,20.90
2022-12-23T20:03:37.198Z,22.23
2022-12-23T20:06:05.871Z,21.40
2022-12-23T20:08:33.769Z,22.00
2022-12-23T20:11:05.859Z,21.33
2022-12-23T20:13:33.290Z,18.93
2022-12-23T20:16:00.239Z,21.00
2022-12-23T20:18:27.212Z,20.13
2022-12-23T20:20:54.184Z,20.47
2022-12-23T20:23:20.906Z,21.57
2022-12-23T20:25:47.708Z,21.50
2022-12-23T20:28:14.436Z,21.60
2022-12-23T20:30:42.497Z,20.63
2022-12-23T20:33:10.032Z,20.50
2022-12-23T20:35:37.581Z,17.57
2022-12-23T20:38:04.336Z,19.90
2022-12-23T20:40:31.350Z,19.50
2022-12-23T20:42:58.466Z,18.57
2022-12-23T20:45:28.258Z,19.20
2022-12-23T20:47:55.015Z,19.80
2022-12-23T20:50:21.688Z,18.77
2022-12-23T20:52:48.553Z,20.93
2022-12-23T20:55:15.199Z,16.80
2022-12-23T20:57:44.623Z,17.80
2022-12-23T21:00:12.817Z,17.23
2022-12-23T21:02:40.724Z,17.30
2022-12-23T21:05:07.753Z,17.33
2022-12-23T21:07:34.469Z,18.50
2022-12-23T21:10:01.180Z,17.50
2022-12-23T21:12:28.145Z,16.10
2022-12-23T21:14:55.984Z,16.07
2022-12-23T21:17:23.875Z,16.60
2022-12-23T21:19:50.538Z,18.30
2022-12-23T21:22:17.189Z,18.13
2022-12-23T21:24:43.773Z,18.87
2022-12-23T21:27:10.408Z,18.80
2022-12-23T21:29:37.021Z,19.43
2022-12-23T21:32:03.847Z,18.10
2022-12-23T21:34:30.497Z,20.70
2022-12-23T21:36:57.204Z,18.70
2022-12-23T21:39:24.080Z,18.23
2022-12-23T21:41:51.486Z,18.20
2022-12-23T21:44:18.470Z,17.30
2022-12-23T21:46:45.257Z,17.40
2022-12-23T21:49:12.974Z,17.03
2022-12-23T21:51:41.323Z,15.80
2022-12-23T21:54:10.728Z,17.20
2022-12-23T21:56:38.775Z,17.87
2022-12-23T21:59:08.519Z,18.90
2022-12-23T22:01:35.275Z,19.70
2022-12-23T22:04:02.069Z,18.20
2022-12-23T22:06:31.764Z,17.40
2022-12-23T22:08:58.575Z,17.73
2022-12-23T22:11:27.754Z,18.53
2022-12-23T22:13:56.547Z,17.70
2022-12-23T22:16:24.899Z,18.90
2022-12-23T22:18:53.117Z,18.83
2022-12-23T22:21:22.406Z,18.10
2022-12-23T22:23:50.394Z,19.50
2022-12-23T22:26:24.667Z,19.40
2022-12-23T22:28:54.004Z,17.40
2022-12-23T22:31:44.495Z,18.27
2022-12-23T22:34:17.660Z,19.03
2022-12-23T22:36:44.561Z,17.07
2022-12-23T22:39:19.723Z,18.23
2022-12-23T22:41:47.580Z,17.13
2022-12-23T22:44:14.985Z,16.53
2022-12-23T22:46:41.976Z,17.33
2022-12-23T22:49:12.087Z,14.93
2022-12-23T22:51:40.708Z,14.37
2022-12-23T22:54:07.795Z,34.77
2022-12-23T22:56:34.484Z,16.80
2022-12-23T22:59:01.122Z,16.17
2022-12-23T23:01:36.932Z,14.03
2022-12-23T23:04:04.540Z,13.87
2022-12-23T23:06:34.404Z,13.60
2022-12-23T23:09:01.414Z,14.40
2022-12-23T23:11:28.944Z,12.50
2022-12-23T23:13:56.400Z,13.57
2022-12-23T23:16:24.232Z,13.37
2022-12-23T23:18:51.750Z,12.47
2022-12-23T23:21:19.053Z,15.03
2022-12-23T23:23:45.975Z,12.77
2022-12-23T23:26:13.232Z,15.23
2022-12-23T23:28:40.618Z,11.83
2022-12-23T23:33:54.975Z,12.73
2022-12-23T23:36:21.724Z,12.33
2022-12-23T23:38:48.472Z,12.50
2022-12-23T23:41:18.881Z,13.90
2022-12-23T23:43:47.197Z,10.80
2022-12-23T23:46:13.872Z,11.80
2022-12-23T23:48:40.540Z,11.90
2022-12-23T23:51:07.411Z,11.87
2022-12-23T23:53:34.144Z,13.13
2022-12-23T23:56:06.155Z,11.83
2022-12-23T23:58:33.063Z,11.37
